Barnesville, MD (20838)

6:23 PM EDT on August 22, 2014 (GMT -0400)
Boyds City Center | Change Station
CLOSE
Current Station
Personal Weather Station
Location: Boyds, MD
Elevation: 460 ft
Nearby Weather Stations

Elev 460 ft 39.19 °N, 77.32 °W | Updated 12 seconds ago

Overcast
Overcast
77.7 °F
Feels Like 80 °F
N
1.0
Wind Variable Wind from North
Gusts 4.0 mph

Today
High -- | Low -- °F
--% Chance of Precip.
Yesterday
High -- | Low -- °F
Precip. -- in
6:28 AM 7:55 PM
Waning Crescent, 6% visible
Pressure 30.01 in
Visibility 3.0 miles
Clouds Mostly Cloudy 6000 ft
Mostly Cloudy 6500 ft
Overcast 7500 ft
Heat Index 80 °F
Dew Point 71 °F
Humidity 79%
Rainfall 0.02 in
Snow Depth Not available.
UV 0.0 out of 12
Pollen 8.30 out of 12
Air Quality Not available.
Flu Activity Not available.
METAR KGAI 222215Z AUTO 00000KT 3SM BKN060 BKN065 OVC075 23/22 A3001 RMK AO1

More Conditions Fewer Conditions

Pressure 30.01 in
Visibility 3.0 miles
Clouds Mostly Cloudy 6000 ft
Mostly Cloudy 6500 ft
Overcast 7500 ft
Heat Index 80 °F
Dew Point 71 °F
Humidity 79%
Rainfall 0.02 in
Snow Depth Not available.
UV 0.0 out of 12
Pollen 8.30 out of 12
Air Quality Not available.
Flu Activity Not available.
METAR KGAI 222215Z AUTO 00000KT 3SM BKN060 BKN065 OVC075 23/22 A3001 RMK AO1

More Conditions Fewer Conditions

10-Day Weather Forecast

Almanac

Astronomy

Aug. 22, 2014 Rise Set
Actual Time 6:28 AM EDT 7:55 PM EDT
Civil Twilight 6:00 AM EDT 8:23 PM EDT
Nautical Twilight 5:26 AM EDT 8:56 PM EDT
Astronomical Twilight 4:51 AM EDT 9:32 PM EDT
Moon 3:50 AM EDT 6:01 PM EDT
Length of Visible Light 14h 22m
Length of Day
13h 26m
Tomorrow will be 2m 21s shorter.
Waning Crescent, 6% of the Moon is Illuminated
Today
Waning Crescent
Aug 25
New
Sep 2
First Quarter
Sep 8
Full
Sep 15
Last Quarter

Today's Extremes

State Highs State Lows

Community

WunderPhotos

Upload Photos

1,746,271 photos uploaded!

WunderBlogs® & News

By Dr. Jeff Masters
Director of Meteorology, Weather Underground
By Kari Strenfel
Meteorologist, Weather Underground
By Christopher C. Burt
Weather Historian, Weather Underground
August 22, 2014
August 22, 2014
August 22, 2014

Nearby

Snow Depth

Station Depth Elevation
No new snow has been reported.

Earthquake Activity

City Distance Mag. Time & Date
No recent earthquake activity has been reported nearby.
Minimum magnitude displayed is 2.5.

Coastal Water Temperatures

Place Temperature
Washington, DC 79.0 °F
Baltimore, MD 82.0 °F
Solomons Island, MD 80.1 °F

Nearby Weather Stations